Time;durP1;ratioP1;P1;durP2;ratioP2;P2;SDS_P1;SDS_P2;PMS_P1;PMS_P2;Temp;Humidity;BMP_temperature;BMP_pressure;BME280_temperature;BME280_humidity;BME280_pressure;Samples;Min_cycle;Max_cycle;Signal;HPM_P1;HPM_P2
2022/03/26 00:00:41;;;;;;;38.83;26.63;;;;;;;;;;5033798;28;20312;-79
2022/03/26 00:03:09;;;;;;;39.77;26.27;;;;;;;;;;5035959;28;20272;-79
2022/03/26 00:05:36;;;;;;;37.83;25.77;;;;;;;;;;5048794;28;20205;-79
2022/03/26 00:08:03;;;;;;;38.23;26.97;;;;;;;;;;5034666;28;20206;-78
2022/03/26 00:10:30;;;;;;;38.67;26.17;;;;;;;;;;5050090;28;20229;-79
2022/03/26 00:12:59;;;;;;;35.97;26.17;;;;;;;;;;5033462;28;20212;-80
2022/03/26 00:15:26;;;;;;;38.03;26.27;;;;;;;;;;5045538;28;20289;-78
2022/03/26 00:17:54;;;;;;;35.67;25.20;;;;;;;;;;5051552;28;20280;-79
2022/03/26 00:20:21;;;;;;;35.50;25.90;;;;;;;;;;5045674;28;20233;-79
2022/03/26 00:22:49;;;;;;;36.03;25.43;;;;;;;;;;5046182;28;20269;-79
2022/03/26 00:25:17;;;;;;;38.17;26.67;;;;;;;;;;5052326;28;20236;-79
2022/03/26 00:27:44;;;;;;;38.27;26.20;;;;;;;;;;5036340;28;20204;-79
2022/03/26 00:30:13;;;;;;;38.73;26.33;;;;;;;;;;5051932;28;20311;-78
2022/03/26 00:32:40;;;;;;;38.50;26.23;;;;;;;;;;5034902;28;20212;-79
2022/03/26 00:35:09;;;;;;;37.60;25.37;;;;;;;;;;5046410;28;20225;-78
2022/03/26 00:37:37;;;;;;;35.73;24.70;;;;;;;;;;5036052;28;20205;-79
2022/03/26 00:40:04;;;;;;;38.80;24.40;;;;;;;;;;5032840;28;20317;-78
2022/03/26 00:42:32;;;;;;;38.50;26.20;;;;;;;;;;5044891;28;20225;-78
2022/03/26 00:44:59;;;;;;;34.80;25.80;;;;;;;;;;5049166;28;20208;-79
2022/03/26 00:47:27;;;;;;;37.90;25.73;;;;;;;;;;5022222;28;20285;-79
2022/03/26 00:49:55;;;;;;;37.87;26.47;;;;;;;;;;5028143;28;20236;-79
2022/03/26 00:52:22;;;;;;;38.37;25.77;;;;;;;;;;5027336;28;20213;-79
2022/03/26 00:54:50;;;;;;;40.23;26.47;;;;;;;;;;5033152;28;20224;-81
2022/03/26 00:57:17;;;;;;;39.53;25.90;;;;;;;;;;5026841;28;20220;-79
2022/03/26 00:59:45;;;;;;;36.13;24.60;;;;;;;;;;5045736;28;20222;-78
2022/03/26 01:02:12;;;;;;;35.30;25.37;;;;;;;;;;5032929;28;20259;-79
2022/03/26 01:04:40;;;;;;;36.83;26.03;;;;;;;;;;5030750;28;20269;-79
2022/03/26 01:07:08;;;;;;;38.43;27.37;;;;;;;;;;5038287;28;20205;-79
2022/03/26 01:09:35;;;;;;;38.57;25.47;;;;;;;;;;5049561;28;20212;-79
2022/03/26 01:12:02;;;;;;;37.70;26.57;;;;;;;;;;5031559;28;20212;-78
2022/03/26 01:14:29;;;;;;;39.27;25.90;;;;;;;;;;5031711;28;20241;-79
2022/03/26 01:16:56;;;;;;;35.57;25.07;;;;;;;;;;5037220;28;20397;-79
2022/03/26 01:19:24;;;;;;;39.73;25.63;;;;;;;;;;5032202;28;20285;-79
2022/03/26 01:21:53;;;;;;;39.57;26.30;;;;;;;;;;5031946;28;20204;-78
2022/03/26 01:24:20;;;;;;;39.40;26.37;;;;;;;;;;5032350;28;20280;-79
2022/03/26 01:26:47;;;;;;;35.83;25.87;;;;;;;;;;5031652;28;20197;-79
2022/03/26 01:29:14;;;;;;;38.03;26.43;;;;;;;;;;5040051;28;20296;-79
2022/03/26 01:31:42;;;;;;;37.60;26.07;;;;;;;;;;5037422;28;20210;-79
2022/03/26 01:34:09;;;;;;;39.87;26.37;;;;;;;;;;5048254;28;20201;-79
2022/03/26 01:36:36;;;;;;;37.47;26.93;;;;;;;;;;5032592;28;20198;-79
2022/03/26 01:39:05;;;;;;;37.90;25.47;;;;;;;;;;5036621;28;20244;-78
2022/03/26 01:41:33;;;;;;;35.27;25.37;;;;;;;;;;5034741;28;20225;-78
2022/03/26 01:44:00;;;;;;;39.80;25.13;;;;;;;;;;5051382;28;20209;-79
2022/03/26 01:46:27;;;;;;;33.87;24.30;;;;;;;;;;5032170;28;20288;-79
2022/03/26 01:48:55;;;;;;;38.77;26.17;;;;;;;;;;5047044;28;20243;-79
2022/03/26 01:51:22;;;;;;;36.47;24.27;;;;;;;;;;5042004;28;20308;-78
2022/03/26 01:53:50;;;;;;;37.33;26.40;;;;;;;;;;5034516;28;20190;-78
2022/03/26 01:56:19;;;;;;;34.27;24.10;;;;;;;;;;5035443;28;20249;-79
2022/03/26 01:58:47;;;;;;;39.03;25.07;;;;;;;;;;5035221;28;20277;-79
2022/03/26 02:01:15;;;;;;;37.40;26.33;;;;;;;;;;5036136;28;20260;-79
2022/03/26 02:03:42;;;;;;;37.47;26.07;;;;;;;;;;5036168;28;20198;-78
2022/03/26 02:06:09;;;;;;;35.47;24.93;;;;;;;;;;5038394;28;20201;-79
2022/03/26 02:08:37;;;;;;;37.67;25.50;;;;;;;;;;5045100;28;20244;-79
2022/03/26 02:11:04;;;;;;;37.10;25.93;;;;;;;;;;5035532;28;20251;-78
2022/03/26 02:13:52;;;;;;;41.30;26.30;;;;;;;;;;5035362;28;20216;-79
2022/03/26 02:16:20;;;;;;;39.20;25.63;;;;;;;;;;5037797;28;20600;-79
2022/03/26 02:18:47;;;;;;;37.53;24.83;;;;;;;;;;5035303;28;20212;-79
2022/03/26 02:21:16;;;;;;;37.70;24.93;;;;;;;;;;5040880;28;20683;-78
2022/03/26 02:23:43;;;;;;;37.43;25.67;;;;;;;;;;5049180;28;20201;-79
2022/03/26 02:26:10;;;;;;;41.73;26.97;;;;;;;;;;5056248;28;20301;-78
2022/03/26 02:28:38;;;;;;;35.23;24.97;;;;;;;;;;5037194;28;20201;-79
2022/03/26 02:31:05;;;;;;;38.67;25.97;;;;;;;;;;5035915;28;20290;-79
2022/03/26 02:33:32;;;;;;;39.43;26.60;;;;;;;;;;5030687;28;20210;-79
2022/03/26 02:35:59;;;;;;;34.73;24.67;;;;;;;;;;5036150;28;20320;-79
2022/03/26 02:38:28;;;;;;;37.87;26.37;;;;;;;;;;5031454;28;20284;-78
2022/03/26 02:40:55;;;;;;;37.93;25.60;;;;;;;;;;5043593;28;20312;-79
2022/03/26 02:43:22;;;;;;;37.73;24.83;;;;;;;;;;5053848;28;20198;-78
2022/03/26 02:45:49;;;;;;;36.30;24.90;;;;;;;;;;5033980;28;20202;-79
2022/03/26 02:48:17;;;;;;;35.53;24.90;;;;;;;;;;5034988;28;20208;-80
2022/03/26 02:50:44;;;;;;;38.47;26.23;;;;;;;;;;5034082;28;20225;-79
2022/03/26 02:53:12;;;;;;;36.83;26.20;;;;;;;;;;5034669;28;20202;-79
2022/03/26 02:55:41;;;;;;;37.07;25.73;;;;;;;;;;5034143;28;20304;-79
2022/03/26 02:58:08;;;;;;;35.33;25.53;;;;;;;;;;5035297;28;20210;-79
2022/03/26 03:00:35;;;;;;;38.23;26.30;;;;;;;;;;5033755;28;20226;-79
2022/03/26 03:03:03;;;;;;;33.37;24.20;;;;;;;;;;5034478;28;20244;-79
2022/03/26 03:05:30;;;;;;;38.83;26.23;;;;;;;;;;5030565;28;20202;-79
2022/03/26 03:07:57;;;;;;;38.00;26.13;;;;;;;;;;5034309;28;20269;-79
2022/03/26 03:10:24;;;;;;;40.47;26.53;;;;;;;;;;5031065;28;20249;-79
2022/03/26 03:12:53;;;;;;;39.30;26.03;;;;;;;;;;5038573;28;20214;-79
2022/03/26 03:15:20;;;;;;;36.57;25.20;;;;;;;;;;5033396;28;20221;-78
2022/03/26 03:17:49;;;;;;;40.27;25.30;;;;;;;;;;5044845;28;20227;-79
2022/03/26 03:20:17;;;;;;;39.27;25.07;;;;;;;;;;5052770;28;20251;-80
2022/03/26 03:22:44;;;;;;;40.43;26.37;;;;;;;;;;5036419;28;20232;-79
2022/03/26 03:25:12;;;;;;;37.47;24.93;;;;;;;;;;5034871;28;20238;-79
2022/03/26 03:27:40;;;;;;;38.07;26.53;;;;;;;;;;5034118;28;20209;-79
2022/03/26 03:30:11;;;;;;;40.57;26.30;;;;;;;;;;5034895;28;20313;-78
2022/03/26 03:32:38;;;;;;;37.23;25.33;;;;;;;;;;5052848;28;20224;-80
2022/03/26 03:35:06;;;;;;;36.87;25.07;;;;;;;;;;5041799;28;20210;-79
2022/03/26 03:37:36;;;;;;;37.10;26.03;;;;;;;;;;5033217;28;20285;-79
2022/03/26 03:40:04;;;;;;;41.10;26.03;;;;;;;;;;5032947;28;20322;-78
2022/03/26 03:42:31;;;;;;;36.20;24.93;;;;;;;;;;5033620;28;20216;-79
2022/03/26 03:44:58;;;;;;;36.47;25.23;;;;;;;;;;5044025;28;20201;-79
2022/03/26 03:47:27;;;;;;;37.53;24.70;;;;;;;;;;5041831;28;20292;-79
2022/03/26 03:49:54;;;;;;;36.77;24.97;;;;;;;;;;5037299;28;20252;-76
2022/03/26 03:52:21;;;;;;;40.37;25.10;;;;;;;;;;5034716;28;20198;-79
2022/03/26 03:54:48;;;;;;;39.77;25.33;;;;;;;;;;5032734;28;20296;-79
2022/03/26 03:57:16;;;;;;;39.23;25.57;;;;;;;;;;5032283;28;20246;-80
2022/03/26 03:59:43;;;;;;;43.40;26.83;;;;;;;;;;5033133;28;20292;-79
2022/03/26 04:02:10;;;;;;;39.87;27.37;;;;;;;;;;5031114;28;20202;-79
2022/03/26 04:04:40;;;;;;;44.83;27.13;;;;;;;;;;5033008;28;20304;-79
2022/03/26 04:07:07;;;;;;;40.90;26.20;;;;;;;;;;5032228;28;20217;-79
2022/03/26 04:09:34;;;;;;;44.93;25.63;;;;;;;;;;5036465;28;20213;-78
2022/03/26 04:12:02;;;;;;;37.20;24.47;;;;;;;;;;5035525;28;20210;-79
2022/03/26 04:14:29;;;;;;;36.40;24.97;;;;;;;;;;5043146;28;20212;-80
2022/03/26 04:16:57;;;;;;;38.53;25.47;;;;;;;;;;5042145;28;20221;-80
2022/03/26 04:19:24;;;;;;;36.30;24.83;;;;;;;;;;5048452;28;20266;-79
2022/03/26 04:21:52;;;;;;;38.63;25.50;;;;;;;;;;5050137;28;20216;-79
2022/03/26 04:24:19;;;;;;;33.73;24.90;;;;;;;;;;5051478;28;20229;-78
2022/03/26 04:26:46;;;;;;;40.07;26.37;;;;;;;;;;5056675;28;20205;-78
2022/03/26 04:29:14;;;;;;;39.30;25.60;;;;;;;;;;5069668;28;20264;-78
2022/03/26 04:31:41;;;;;;;37.37;26.73;;;;;;;;;;5037232;28;20259;-77
2022/03/26 04:34:08;;;;;;;36.30;25.13;;;;;;;;;;5041597;28;20202;-78
2022/03/26 04:36:35;;;;;;;41.13;25.50;;;;;;;;;;5032249;28;20315;-78
2022/03/26 04:39:04;;;;;;;40.83;25.93;;;;;;;;;;5029241;28;20206;-79
2022/03/26 04:41:31;;;;;;;38.07;25.87;;;;;;;;;;5035854;28;20315;-78
2022/03/26 04:43:58;;;;;;;36.80;24.67;;;;;;;;;;5030677;28;20285;-79
2022/03/26 04:46:25;;;;;;;37.90;24.70;;;;;;;;;;5047716;28;20204;-78
2022/03/26 04:48:52;;;;;;;36.67;25.10;;;;;;;;;;5036749;28;20289;-78
2022/03/26 04:51:19;;;;;;;38.00;25.17;;;;;;;;;;5031879;28;20237;-78
2022/03/26 04:53:47;;;;;;;39.60;26.60;;;;;;;;;;5037236;28;20209;-79
2022/03/26 04:56:15;;;;;;;38.20;25.50;;;;;;;;;;5034043;28;20224;-78
2022/03/26 04:58:42;;;;;;;38.80;25.70;;;;;;;;;;5034424;28;20290;-79
2022/03/26 05:01:10;;;;;;;36.83;25.57;;;;;;;;;;5037115;28;20235;-78
2022/03/26 05:03:37;;;;;;;37.80;25.00;;;;;;;;;;5031284;28;20240;-78
2022/03/26 05:06:04;;;;;;;37.23;26.10;;;;;;;;;;5031656;28;20201;-78
2022/03/26 05:08:32;;;;;;;37.07;24.73;;;;;;;;;;5032972;28;20304;-76
2022/03/26 05:10:59;;;;;;;39.67;25.60;;;;;;;;;;5039564;28;20227;-78
2022/03/26 05:13:28;;;;;;;37.57;24.60;;;;;;;;;;5028196;28;20237;-79
2022/03/26 05:15:55;;;;;;;38.73;25.97;;;;;;;;;;5031648;28;20325;-78
2022/03/26 05:18:22;;;;;;;41.00;25.37;;;;;;;;;;5036534;28;20288;-79
2022/03/26 05:20:49;;;;;;;39.90;25.97;;;;;;;;;;5036466;28;20230;-79
2022/03/26 05:23:17;;;;;;;38.33;25.73;;;;;;;;;;5036921;28;20210;-77
2022/03/26 05:25:44;;;;;;;41.00;25.73;;;;;;;;;;5027858;28;20290;-79
2022/03/26 05:28:11;;;;;;;37.67;26.23;;;;;;;;;;5037969;28;20221;-78
2022/03/26 05:30:40;;;;;;;39.37;26.23;;;;;;;;;;5028440;28;20241;-78
2022/03/26 05:33:07;;;;;;;39.07;26.07;;;;;;;;;;5030444;28;20280;-78
2022/03/26 05:35:34;;;;;;;39.57;24.87;;;;;;;;;;5028814;28;20201;-79
2022/03/26 05:38:02;;;;;;;37.07;25.53;;;;;;;;;;5027319;28;20289;-78
2022/03/26 05:40:29;;;;;;;39.57;26.20;;;;;;;;;;5030135;28;20224;-77
2022/03/26 05:42:57;;;;;;;40.57;24.67;;;;;;;;;;5025326;28;20210;-78
2022/03/26 05:45:24;;;;;;;41.67;25.80;;;;;;;;;;5025159;28;20203;-78
2022/03/26 05:47:52;;;;;;;36.37;25.40;;;;;;;;;;5029905;28;20244;-78
2022/03/26 05:50:20;;;;;;;36.87;25.17;;;;;;;;;;5028837;28;20221;-76
2022/03/26 05:52:47;;;;;;;38.30;24.63;;;;;;;;;;5033058;28;20194;-78
2022/03/26 05:55:16;;;;;;;36.17;24.80;;;;;;;;;;5027551;28;20254;-78
2022/03/26 05:57:43;;;;;;;39.03;26.40;;;;;;;;;;5035103;28;20230;-76
2022/03/26 06:00:11;;;;;;;36.80;25.57;;;;;;;;;;5038120;28;20221;-76
2022/03/26 06:02:39;;;;;;;35.03;24.63;;;;;;;;;;5037461;28;20201;-78
2022/03/26 06:05:08;;;;;;;35.27;24.87;;;;;;;;;;5035252;28;20230;-78
2022/03/26 06:07:35;;;;;;;38.70;25.77;;;;;;;;;;5031772;28;20386;-78
2022/03/26 06:10:03;;;;;;;34.83;23.77;;;;;;;;;;5030816;28;20293;-77
2022/03/26 06:12:30;;;;;;;33.43;23.60;;;;;;;;;;5034692;28;20205;-76
2022/03/26 06:14:58;;;;;;;36.23;24.97;;;;;;;;;;5025617;28;20260;-77
2022/03/26 06:17:25;;;;;;;40.43;24.83;;;;;;;;;;5031128;28;20244;-77
2022/03/26 06:19:53;;;;;;;40.07;25.07;;;;;;;;;;5034036;28;20222;-80
2022/03/26 06:22:21;;;;;;;36.50;24.17;;;;;;;;;;5032660;28;20217;-77
2022/03/26 06:24:49;;;;;;;34.97;24.27;;;;;;;;;;5029020;28;20233;-77
2022/03/26 06:27:16;;;;;;;34.57;25.63;;;;;;;;;;5027015;28;20210;-76
2022/03/26 06:29:43;;;;;;;37.70;25.60;;;;;;;;;;5030622;28;20222;-79
2022/03/26 06:32:15;;;;;;;40.90;25.90;;;;;;;;;;5038703;28;20206;-81
2022/03/26 06:34:43;;;;;;;37.03;25.17;;;;;;;;;;5035062;28;20205;-78
2022/03/26 06:37:10;;;;;;;35.00;24.17;;;;;;;;;;5034847;28;20232;-78
2022/03/26 06:39:38;;;;;;;36.73;24.53;;;;;;;;;;5053825;28;20233;-77
2022/03/26 06:42:06;;;;;;;38.93;25.53;;;;;;;;;;5034482;28;20209;-77
2022/03/26 06:44:33;;;;;;;40.97;26.43;;;;;;;;;;5027819;28;20270;-78
2022/03/26 06:47:01;;;;;;;36.20;25.57;;;;;;;;;;5027337;28;20208;-77
2022/03/26 06:49:30;;;;;;;38.73;25.43;;;;;;;;;;5027670;28;20209;-77
2022/03/26 06:52:04;;;;;;;41.40;26.20;;;;;;;;;;5028058;28;20213;-76
2022/03/26 06:54:31;;;;;;;35.10;25.47;;;;;;;;;;5041665;28;20209;-77
2022/03/26 06:57:00;;;;;;;37.53;26.73;;;;;;;;;;5053294;28;20233;-77
2022/03/26 06:59:29;;;;;;;38.13;25.90;;;;;;;;;;5046773;28;20331;-76
2022/03/26 07:01:57;;;;;;;37.23;25.73;;;;;;;;;;5034101;28;20237;-77
2022/03/26 07:04:24;;;;;;;35.93;25.83;;;;;;;;;;5034229;28;20209;-77
2022/03/26 07:06:51;;;;;;;34.87;24.60;;;;;;;;;;5034743;28;20674;-77
2022/03/26 07:09:19;;;;;;;40.37;25.60;;;;;;;;;;5034082;28;20210;-76
2022/03/26 07:11:47;;;;;;;34.40;24.97;;;;;;;;;;5033948;28;20202;-76
2022/03/26 07:14:15;;;;;;;35.57;25.73;;;;;;;;;;5033122;28;20300;-76
2022/03/26 07:16:43;;;;;;;35.47;24.50;;;;;;;;;;5033461;28;20221;-77
2022/03/26 07:19:11;;;;;;;37.37;24.60;;;;;;;;;;5028597;28;20667;-77
2022/03/26 07:21:39;;;;;;;38.00;24.30;;;;;;;;;;5040478;28;20267;-76
2022/03/26 07:24:06;;;;;;;35.17;24.40;;;;;;;;;;5027107;28;20281;-76
2022/03/26 07:26:34;;;;;;;36.30;24.40;;;;;;;;;;5026795;28;20293;-77
2022/03/26 07:29:01;;;;;;;31.67;23.17;;;;;;;;;;5027302;28;20667;-76
2022/03/26 07:31:29;;;;;;;30.93;22.40;;;;;;;;;;5046676;28;20225;-77
2022/03/26 07:33:57;;;;;;;36.57;24.40;;;;;;;;;;5033239;28;20291;-76
2022/03/26 07:36:24;;;;;;;34.27;23.63;;;;;;;;;;5052778;28;20299;-77
2022/03/26 07:38:51;;;;;;;34.43;24.03;;;;;;;;;;5052599;28;20205;-77
2022/03/26 07:41:19;;;;;;;32.80;23.53;;;;;;;;;;5052867;28;20288;-77
2022/03/26 07:43:46;;;;;;;33.47;23.63;;;;;;;;;;5052830;28;20212;-77
2022/03/26 07:46:14;;;;;;;31.40;23.70;;;;;;;;;;5034200;28;20256;-77
2022/03/26 07:48:42;;;;;;;33.03;22.83;;;;;;;;;;5033557;28;20209;-76
2022/03/26 07:51:10;;;;;;;33.37;24.73;;;;;;;;;;5032751;28;20326;-76
2022/03/26 07:53:39;;;;;;;33.07;23.57;;;;;;;;;;5033595;28;20285;-77
2022/03/26 07:56:07;;;;;;;33.57;23.50;;;;;;;;;;5033100;28;20217;-77
2022/03/26 07:58:36;;;;;;;32.20;22.43;;;;;;;;;;5032713;28;20253;-77
2022/03/26 08:01:05;;;;;;;30.43;22.83;;;;;;;;;;5032790;28;20261;-76
2022/03/26 08:03:32;;;;;;;32.80;24.50;;;;;;;;;;5032949;28;20215;-77
2022/03/26 08:06:04;;;;;;;35.13;25.80;;;;;;;;;;5033077;28;20241;-76
2022/03/26 08:08:31;;;;;;;32.67;23.70;;;;;;;;;;5032786;28;20228;-77
2022/03/26 08:10:58;;;;;;;36.00;25.40;;;;;;;;;;5026166;28;20276;-76
2022/03/26 08:13:25;;;;;;;31.40;23.67;;;;;;;;;;5052212;28;20215;-77
2022/03/26 08:15:54;;;;;;;29.90;22.43;;;;;;;;;;5032792;28;20252;-77
2022/03/26 08:18:21;;;;;;;34.10;24.17;;;;;;;;;;5045368;28;20222;-76
2022/03/26 08:20:49;;;;;;;29.50;21.17;;;;;;;;;;5056080;22;20229;-80
2022/03/26 08:23:17;;;;;;;31.00;22.03;;;;;;;;;;5055700;28;20272;-81
2022/03/26 08:28:29;;;;;;;30.43;22.93;;;;;;;;;;5056292;28;20343;-80
2022/03/26 08:30:57;;;;;;;30.17;22.03;;;;;;;;;;5055762;28;20229;-81
2022/03/26 08:33:24;;;;;;;28.83;22.17;;;;;;;;;;5055367;28;20244;-81
2022/03/26 08:35:51;;;;;;;37.00;24.23;;;;;;;;;;5055522;28;20287;-81
2022/03/26 08:38:19;;;;;;;36.77;24.67;;;;;;;;;;5054081;28;20235;-81
2022/03/26 08:40:47;;;;;;;31.67;24.27;;;;;;;;;;5054925;28;20221;-81
2022/03/26 08:43:14;;;;;;;38.13;25.07;;;;;;;;;;5055856;28;20296;-81
2022/03/26 08:45:42;;;;;;;34.40;24.47;;;;;;;;;;5055183;28;20207;-81
2022/03/26 08:48:09;;;;;;;33.03;23.20;;;;;;;;;;5055029;28;20197;-81
2022/03/26 08:50:37;;;;;;;34.57;25.40;;;;;;;;;;5054582;28;20221;-81
2022/03/26 08:53:04;;;;;;;35.70;23.33;;;;;;;;;;5054752;28;20300;-81
2022/03/26 08:55:32;;;;;;;29.23;22.30;;;;;;;;;;5055502;28;20205;-80
2022/03/26 08:57:59;;;;;;;29.10;22.47;;;;;;;;;;5055487;28;20229;-80
2022/03/26 09:00:27;;;;;;;28.50;21.37;;;;;;;;;;5052786;28;20300;-81
2022/03/26 09:02:54;;;;;;;31.90;21.80;;;;;;;;;;5053125;28;20194;-82
2022/03/26 09:05:22;;;;;;;30.27;22.37;;;;;;;;;;5055329;28;20284;-80
2022/03/26 09:07:49;;;;;;;28.77;21.03;;;;;;;;;;5054328;28;20239;-81
2022/03/26 09:10:16;;;;;;;31.73;21.90;;;;;;;;;;5054655;28;20308;-81
2022/03/26 09:12:45;;;;;;;28.57;21.97;;;;;;;;;;5055414;28;20255;-80
2022/03/26 09:15:12;;;;;;;29.90;21.27;;;;;;;;;;5051244;28;20291;-79
2022/03/26 09:17:39;;;;;;;30.90;21.37;;;;;;;;;;5053334;28;20284;-80
2022/03/26 09:20:07;;;;;;;33.00;21.97;;;;;;;;;;5046491;28;20293;-81
2022/03/26 09:22:35;;;;;;;31.00;22.30;;;;;;;;;;5051088;28;20209;-82
2022/03/26 09:25:02;;;;;;;30.20;21.77;;;;;;;;;;5049667;28;20211;-84
2022/03/26 09:27:29;;;;;;;28.80;21.23;;;;;;;;;;5054159;28;20223;-82
2022/03/26 09:30:01;;;;;;;32.97;22.10;;;;;;;;;;5047600;28;20228;-81
2022/03/26 09:32:28;;;;;;;34.27;22.37;;;;;;;;;;5051116;28;20225;-81
2022/03/26 09:34:55;;;;;;;32.40;22.40;;;;;;;;;;5051223;28;20292;-81
2022/03/26 09:37:23;;;;;;;33.57;23.53;;;;;;;;;;5049128;28;20695;-81
2022/03/26 09:39:50;;;;;;;31.17;22.37;;;;;;;;;;5050270;28;20224;-86
2022/03/26 09:42:17;;;;;;;32.20;23.73;;;;;;;;;;5053176;28;20254;-81
2022/03/26 09:44:46;;;;;;;29.60;22.90;;;;;;;;;;5053931;28;20201;-84
2022/03/26 09:47:15;;;;;;;32.77;22.07;;;;;;;;;;5048907;28;20219;-84
2022/03/26 09:49:42;;;;;;;32.77;22.00;;;;;;;;;;5050738;28;20201;-81
2022/03/26 09:52:10;;;;;;;34.50;24.10;;;;;;;;;;5057711;28;20290;-79
2022/03/26 09:54:37;;;;;;;32.20;22.37;;;;;;;;;;5050296;28;20663;-80
2022/03/26 09:57:05;;;;;;;36.20;25.07;;;;;;;;;;5056531;28;20227;-80
2022/03/26 09:59:32;;;;;;;33.07;23.97;;;;;;;;;;5056692;28;20210;-80
2022/03/26 10:02:01;;;;;;;28.60;22.40;;;;;;;;;;5057242;28;20224;-80
2022/03/26 10:04:37;;;;;;;33.80;23.97;;;;;;;;;;5058309;28;20209;-80
2022/03/26 10:07:05;;;;;;;35.23;24.40;;;;;;;;;;5058651;28;20209;-79
2022/03/26 10:09:34;;;;;;;31.00;23.03;;;;;;;;;;5058034;28;20300;-79
2022/03/26 10:12:02;;;;;;;31.17;23.33;;;;;;;;;;5054328;28;20268;-78
2022/03/26 10:14:43;;;;;;;34.60;24.43;;;;;;;;;;5054320;28;20291;-78
2022/03/26 10:17:11;;;;;;;31.03;24.10;;;;;;;;;;5054061;28;20291;-78
2022/03/26 10:19:42;;;;;;;33.13;24.20;;;;;;;;;;5055517;28;20298;-78
2022/03/26 10:22:13;;;;;;;34.00;24.87;;;;;;;;;;5055502;28;20316;-78
2022/03/26 10:24:44;;;;;;;31.77;23.53;;;;;;;;;;5055854;28;20213;-79
2022/03/26 10:27:12;;;;;;;34.37;25.50;;;;;;;;;;5054616;28;20201;-78
2022/03/26 10:29:48;;;;;;;30.80;24.07;;;;;;;;;;5055685;28;20205;-79
2022/03/26 10:32:41;;;;;;;31.23;23.20;;;;;;;;;;5058453;28;20292;-80
2022/03/26 10:35:20;;;;;;;32.23;23.97;;;;;;;;;;5059320;28;20209;-79
2022/03/26 10:37:51;;;;;;;31.07;24.13;;;;;;;;;;5058000;28;20293;-79
2022/03/26 10:40:23;;;;;;;29.93;22.77;;;;;;;;;;5057969;28;20670;-79
2022/03/26 10:42:53;;;;;;;33.67;23.57;;;;;;;;;;5058240;28;20268;-79
2022/03/26 10:45:21;;;;;;;33.10;22.97;;;;;;;;;;5059344;28;20220;-79
2022/03/26 10:47:52;;;;;;;34.07;24.10;;;;;;;;;;5058975;28;20208;-79
2022/03/26 10:50:21;;;;;;;30.38;23.25;;;;;;;;;;5058223;28;20233;-79
2022/03/26 10:52:48;;;;;;;30.50;23.50;;;;;;;;;;5057832;28;20216;-79
2022/03/26 10:55:16;;;;;;;32.08;23.88;;;;;;;;;;5057445;28;20223;-79
2022/03/26 10:57:45;;;;;;;33.65;23.80;;;;;;;;;;5057107;28;20225;-79
2022/03/26 11:00:12;;;;;;;31.90;24.27;;;;;;;;;;5056891;28;20221;-79
2022/03/26 11:02:41;;;;;;;30.85;23.20;;;;;;;;;;5057181;28;20205;-79
2022/03/26 11:05:08;;;;;;;32.47;23.60;;;;;;;;;;5057587;28;20205;-79
2022/03/26 11:07:39;;;;;;;29.98;22.73;;;;;;;;;;5056451;28;20212;-78
2022/03/26 11:10:07;;;;;;;33.47;23.90;;;;;;;;;;5057562;28;20211;-78
2022/03/26 11:12:35;;;;;;;30.77;22.90;;;;;;;;;;5057846;28;20228;-79
2022/03/26 11:15:03;;;;;;;32.90;24.30;;;;;;;;;;5057405;28;20209;-79
2022/03/26 11:17:37;;;;;;;30.50;23.13;;;;;;;;;;5058021;28;20209;-79
2022/03/26 11:20:14;;;;;;;29.90;22.95;;;;;;;;;;5057084;28;20555;-79
2022/03/26 11:22:53;;;;;;;30.05;21.73;;;;;;;;;;5057519;28;20209;-79
2022/03/26 11:25:37;;;;;;;28.05;21.55;;;;;;;;;;5056902;28;20241;-79
2022/03/26 11:28:28;;;;;;;31.45;23.17;;;;;;;;;;5057998;28;20201;-79
2022/03/26 11:30:57;;;;;;;30.52;22.88;;;;;;;;;;5047187;28;20255;-78
2022/03/26 11:33:24;;;;;;;27.25;22.25;;;;;;;;;;5055925;28;20209;-78
2022/03/26 11:35:53;;;;;;;27.55;22.20;;;;;;;;;;5055956;28;20259;-78
2022/03/26 11:38:23;;;;;;;25.85;19.70;;;;;;;;;;5055620;28;20221;-78
2022/03/26 11:40:53;;;;;;;28.90;20.77;;;;;;;;;;5055039;28;20232;-78
2022/03/26 11:43:20;;;;;;;24.98;20.25;;;;;;;;;;5054971;28;20210;-78
2022/03/26 11:51:22;;;;;;;23.95;19.42;;;;;;;;;;5053870;28;20223;-80
2022/03/26 11:53:52;;;;;;;21.90;18.17;;;;;;;;;;5053667;28;20212;-78
2022/03/26 11:56:23;;;;;;;24.67;19.17;;;;;;;;;;5056698;28;20201;-78
2022/03/26 11:59:07;;;;;;;25.05;18.90;;;;;;;;;;5056490;28;20223;-80
2022/03/26 12:01:38;;;;;;;24.17;18.27;;;;;;;;;;5055874;28;20233;-78
2022/03/26 12:04:12;;;;;;;23.90;18.75;;;;;;;;;;5055880;28;20201;-78
2022/03/26 12:06:43;;;;;;;22.75;17.75;;;;;;;;;;5055864;28;20300;-78
2022/03/26 12:09:12;;;;;;;21.98;17.52;;;;;;;;;;5054715;28;20213;-80
2022/03/26 12:12:00;;;;;;;23.30;18.02;;;;;;;;;;5055378;28;20221;-80
2022/03/26 12:14:27;;;;;;;22.63;17.45;;;;;;;;;;5056091;28;20231;-80
2022/03/26 12:16:55;;;;;;;24.23;18.88;;;;;;;;;;5053296;28;20201;-80
2022/03/26 12:19:38;;;;;;;24.75;18.17;;;;;;;;;;5053169;28;20229;-80
2022/03/26 12:22:23;;;;;;;21.92;17.23;;;;;;;;;;5052468;28;20240;-77
2022/03/26 12:24:52;;;;;;;19.48;16.67;;;;;;;;;;5053731;28;20296;-79
2022/03/26 12:27:19;;;;;;;24.23;17.45;;;;;;;;;;5054536;28;20300;-77
2022/03/26 12:29:46;;;;;;;21.08;16.70;;;;;;;;;;5055286;28;20287;-77
2022/03/26 12:32:14;;;;;;;22.58;16.80;;;;;;;;;;5054734;28;20249;-78
2022/03/26 12:34:56;;;;;;;20.63;16.90;;;;;;;;;;5055441;28;20280;-78
2022/03/26 12:37:24;;;;;;;20.25;16.55;;;;;;;;;;5053672;28;20205;-80
2022/03/26 12:39:52;;;;;;;22.95;16.80;;;;;;;;;;5054399;28;20293;-78
2022/03/26 12:42:20;;;;;;;20.30;16.35;;;;;;;;;;5055034;28;20205;-78
2022/03/26 12:44:47;;;;;;;21.73;17.02;;;;;;;;;;5055546;28;20288;-78
2022/03/26 12:47:18;;;;;;;23.75;17.77;;;;;;;;;;5056014;28;20205;-78
2022/03/26 12:49:47;;;;;;;20.65;16.98;;;;;;;;;;5056146;28;20223;-78
2022/03/26 12:52:17;;;;;;;21.67;16.73;;;;;;;;;;5055924;28;20225;-78
2022/03/26 12:54:44;;;;;;;18.73;16.20;;;;;;;;;;5055595;28;20213;-78
2022/03/26 12:57:13;;;;;;;19.52;16.00;;;;;;;;;;5054953;28;20209;-78
2022/03/26 12:59:39;;;;;;;22.40;17.13;;;;;;;;;;5054219;28;20243;-78
2022/03/26 13:02:10;;;;;;;20.30;16.45;;;;;;;;;;5054285;28;20220;-78
2022/03/26 13:04:38;;;;;;;22.02;16.88;;;;;;;;;;5054681;28;20323;-78
2022/03/26 13:07:05;;;;;;;19.85;15.52;;;;;;;;;;5054856;28;20303;-78
2022/03/26 13:09:33;;;;;;;19.15;15.15;;;;;;;;;;5055387;28;20985;-78
2022/03/26 13:12:00;;;;;;;17.88;14.57;;;;;;;;;;5055234;28;20245;-78
2022/03/26 13:14:29;;;;;;;17.45;14.35;;;;;;;;;;5053878;28;20201;-78
2022/03/26 13:16:58;;;;;;;18.13;14.15;;;;;;;;;;5054716;28;20205;-78
2022/03/26 13:19:33;;;;;;;17.20;13.43;;;;;;;;;;5065103;28;20646;-78
2022/03/26 13:22:03;;;;;;;18.50;14.57;;;;;;;;;;5054026;28;20250;-78
2022/03/26 13:24:30;;;;;;;18.77;15.27;;;;;;;;;;5053827;28;20197;-78
2022/03/26 13:27:01;;;;;;;17.75;14.18;;;;;;;;;;5054215;28;20217;-78
2022/03/26 13:29:30;;;;;;;17.05;14.70;;;;;;;;;;5054005;28;20215;-78
2022/03/26 13:31:58;;;;;;;16.98;15.02;;;;;;;;;;5055254;28;20274;-78
2022/03/26 13:34:26;;;;;;;18.55;14.98;;;;;;;;;;5054677;28;20205;-78
2022/03/26 13:36:54;;;;;;;18.48;14.95;;;;;;;;;;5054812;28;20296;-78
2022/03/26 13:39:22;;;;;;;18.48;14.98;;;;;;;;;;5053692;28;20264;-78
2022/03/26 13:41:50;;;;;;;18.85;14.48;;;;;;;;;;5054244;28;20287;-78
2022/03/26 13:44:18;;;;;;;16.02;14.18;;;;;;;;;;5054338;28;20209;-78
2022/03/26 13:46:47;;;;;;;16.13;14.13;;;;;;;;;;5054667;28;20228;-78
2022/03/26 13:49:24;;;;;;;15.85;13.43;;;;;;;;;;5053581;28;20213;-78
2022/03/26 13:51:52;;;;;;;16.83;14.10;;;;;;;;;;5052956;28;20269;-78
2022/03/26 13:54:28;;;;;;;19.88;14.30;;;;;;;;;;5054658;28;20291;-78
2022/03/26 13:56:56;;;;;;;15.85;13.60;;;;;;;;;;5052567;28;20196;-78
2022/03/26 13:59:25;;;;;;;15.27;13.27;;;;;;;;;;5053067;28;20217;-78
2022/03/26 14:01:54;;;;;;;16.63;13.73;;;;;;;;;;5053198;28;20227;-77
2022/03/26 14:04:22;;;;;;;14.75;13.18;;;;;;;;;;5051689;28;20956;-78
2022/03/26 14:06:49;;;;;;;14.40;12.63;;;;;;;;;;5048220;28;20197;-78
2022/03/26 14:09:19;;;;;;;15.63;13.60;;;;;;;;;;5055596;28;20271;-78
2022/03/26 14:11:46;;;;;;;16.10;12.98;;;;;;;;;;5054680;28;20228;-78
2022/03/26 14:14:13;;;;;;;15.18;13.15;;;;;;;;;;5056010;28;20243;-78
2022/03/26 14:16:40;;;;;;;15.13;13.50;;;;;;;;;;5056568;28;20667;-78
2022/03/26 14:19:09;;;;;;;17.17;13.48;;;;;;;;;;5056670;28;20229;-78
2022/03/26 14:21:37;;;;;;;15.80;13.60;;;;;;;;;;5058347;22;20700;-75
2022/03/26 14:24:04;;;;;;;15.60;13.75;;;;;;;;;;5034827;28;20201;-76
2022/03/26 14:26:31;;;;;;;14.82;13.20;;;;;;;;;;5036133;28;20198;-76
2022/03/26 14:28:59;;;;;;;17.55;14.35;;;;;;;;;;5031320;28;20202;-75
2022/03/26 14:31:29;;;;;;;17.73;14.32;;;;;;;;;;5030474;28;20312;-75